Terminal Aerodrome Forecast
Issued by NWS

Home | Current Version | Previous Version | Text Only | Print | Product List | Glossary On
Versions: 1 2 3 4 5 6 7 8 9 10 11 12 13 14
545
FTUS42 KMHX 261742
TAFPGV
TAF
KPGV 261742Z 2618/2718 25007KT P6SM SCT035
     FM271400 20010G18KT P6SM FEW040
      AMD LTD TO CLD VIS AND WIND=

USA.gov is the U.S. government's official web portal to all federal, state and local government web resources and services.